Cranbury, New Jersey
Current Conditions -  °F | °C
As of 6:53 AM on Saturday 25 Oct 2014 (Local Time) from KTTN Reporting Station
Clear Clear  
Wind Chill: 36°   Ceiling: Unl
Heat Index: 40°   Visibility: 10mi
Dew Point: 32°   Wind: 6mph
Humidity: 73%   Direction: 210°SSW
Pressure: 29.88"   Gusts: NA
Location:  40.32°N, 74.51°W
Report Text: KTTN 251053Z 21005KT 10SM CLR 04/00 A2988 RMK AO2 SLP114 T00440000
Loading
Personal Weather Stations






























Interactive Weather Map New forecast layout! Learn more

10-Day Weather Forecast

Advertisements
Track Severe Weather on mobile